Time;durP1;ratioP1;P1;durP2;ratioP2;P2;SDS_P1;SDS_P2;PMS_P1;PMS_P2;Temp;Humidity;BMP_temperature;BMP_pressure;BME280_temperature;BME280_humidity;BME280_pressure;Samples;Min_cycle;Max_cycle;Signal;HPM_P1;HPM_P2
2022/11/26 00:02:17;;;;;;;16.23;6.33;;;6.60;99.90;;;;;;5021337;28;20321;-45
2022/11/26 00:04:44;;;;;;;21.27;7.93;;;6.50;99.90;;;;;;5025003;28;20278;-49
2022/11/26 00:07:13;;;;;;;16.63;8.03;;;6.60;99.90;;;;;;5008805;28;20238;-48
2022/11/26 00:09:40;;;;;;;12.90;7.17;;;6.60;99.90;;;;;;5024453;28;20211;-48
2022/11/26 00:12:16;;;;;;;20.93;6.67;;;6.50;99.90;;;;;;5019991;28;20199;-51
2022/11/26 00:14:44;;;;;;;17.57;7.07;;;6.50;99.90;;;;;;5007912;28;20261;-46
2022/11/26 00:17:12;;;;;;;13.83;7.27;;;6.30;99.90;;;;;;5014014;28;20329;-50
2022/11/26 00:19:39;;;;;;;16.10;6.40;;;6.30;99.90;;;;;;5020598;28;20641;-49
2022/11/26 00:22:06;;;;;;;12.00;7.50;;;6.30;99.90;;;;;;5013258;28;20667;-48
2022/11/26 00:24:32;;;;;;;15.53;6.80;;;6.10;99.90;;;;;;5023844;28;20207;-48
2022/11/26 00:27:00;;;;;;;20.77;8.03;;;6.10;99.90;;;;;;5017990;28;20228;-51
2022/11/26 00:29:28;;;;;;;17.33;7.13;;;6.20;99.90;;;;;;4997953;28;20707;-46
2022/11/26 00:31:55;;;;;;;28.23;7.40;;;6.20;99.90;;;;;;5021388;28;20711;-46
2022/11/26 00:34:22;;;;;;;17.27;6.73;;;6.20;99.90;;;;;;5022856;28;20200;-48
2022/11/26 00:36:49;;;;;;;18.50;7.57;;;6.20;99.90;;;;;;5022700;28;20593;-53
2022/11/26 00:39:18;;;;;;;22.17;7.23;;;6.10;99.90;;;;;;5014242;28;20212;-49
2022/11/26 00:41:49;;;;;;;15.37;7.77;;;6.10;99.90;;;;;;5023263;28;20216;-47
2022/11/26 00:44:21;;;;;;;18.23;6.83;;;6.00;99.90;;;;;;5001111;28;20251;-49
2022/11/26 00:46:50;;;;;;;16.37;6.13;;;6.00;99.90;;;;;;5022741;28;20772;-53
2022/11/26 00:49:18;;;;;;;18.83;6.63;;;6.00;99.90;;;;;;5021319;28;20199;-47
2022/11/26 00:51:46;;;;;;;20.07;7.60;;;5.90;99.90;;;;;;5023112;28;20569;-48
2022/11/26 00:54:17;;;;;;;9.50;6.07;;;5.90;99.90;;;;;;5013923;28;20218;-47
2022/11/26 00:56:44;;;;;;;17.63;7.63;;;5.90;99.90;;;;;;5023678;28;20220;-46
2022/11/26 00:59:13;;;;;;;26.53;7.57;;;5.90;99.90;;;;;;5019766;28;20897;-49
2022/11/26 01:01:40;;;;;;;12.73;7.50;;;5.90;99.90;;;;;;4999482;28;20633;-46
2022/11/26 01:04:08;;;;;;;13.60;7.07;;;5.90;99.90;;;;;;5019425;28;20352;-52
2022/11/26 01:06:38;;;;;;;13.43;7.10;;;5.80;99.90;;;;;;5023382;28;20220;-47
2022/11/26 01:09:07;;;;;;;18.13;7.60;;;5.80;99.90;;;;;;5012336;28;20924;-51
2022/11/26 01:11:34;;;;;;;12.10;7.10;;;5.80;99.90;;;;;;5023262;28;20206;-49
2022/11/26 01:14:01;;;;;;;24.73;7.93;;;5.80;99.90;;;;;;5020218;28;20203;-48
2022/11/26 01:16:31;;;;;;;20.13;8.03;;;5.80;99.90;;;;;;5006353;28;20223;-46
2022/11/26 01:19:01;;;;;;;19.27;7.57;;;5.70;99.90;;;;;;5020871;28;20215;-50
2022/11/26 01:21:32;;;;;;;17.20;6.60;;;5.70;99.90;;;;;;5022788;28;20219;-48
2022/11/26 01:23:58;;;;;;;21.50;7.27;;;5.70;99.90;;;;;;5010509;28;20650;-51
2022/11/26 01:26:27;;;;;;;12.33;6.43;;;5.70;99.90;;;;;;5014981;28;20228;-45
2022/11/26 01:28:55;;;;;;;10.93;6.90;;;5.70;99.90;;;;;;5017623;28;20203;-52
2022/11/26 01:31:25;;;;;;;24.43;7.43;;;5.60;99.90;;;;;;5002523;28;20204;-48
2022/11/26 01:33:52;;;;;;;19.77;7.67;;;5.70;99.90;;;;;;5021400;28;20203;-47
2022/11/26 01:36:25;;;;;;;12.93;7.27;;;5.60;99.90;;;;;;5020139;28;20215;-46
2022/11/26 01:38:55;;;;;;;18.00;7.27;;;5.60;99.90;;;;;;5016708;28;20215;-51
2022/11/26 01:41:38;;;;;;;25.30;6.67;;;5.60;99.90;;;;;;5013336;28;20206;-51
2022/11/26 01:44:15;;;;;;;19.80;6.73;;;5.50;99.90;;;;;;5019291;28;20898;-50
2022/11/26 01:46:42;;;;;;;20.87;7.77;;;5.50;99.90;;;;;;5006588;28;20219;-49
2022/11/26 01:49:17;;;;;;;27.67;7.80;;;5.50;99.90;;;;;;5018927;28;20200;-45
2022/11/26 01:51:47;;;;;;;16.70;7.53;;;5.50;99.90;;;;;;5011432;28;20279;-52
2022/11/26 01:54:17;;;;;;;18.23;7.77;;;5.60;99.90;;;;;;5013373;28;20199;-52
2022/11/26 01:56:47;;;;;;;17.27;8.07;;;5.60;99.90;;;;;;5010379;28;20707;-50
2022/11/26 01:59:19;;;;;;;18.20;7.53;;;5.60;99.90;;;;;;5020109;28;20206;-48
2022/11/26 02:01:49;;;;;;;44.67;10.17;;;5.60;99.90;;;;;;5021105;28;20200;-48
2022/11/26 02:04:19;;;;;;;28.20;8.80;;;5.60;99.90;;;;;;5008470;28;20211;-45
2022/11/26 02:06:49;;;;;;;23.90;8.50;;;5.70;99.90;;;;;;5022367;28;20231;-51
2022/11/26 02:09:18;;;;;;;26.60;9.03;;;5.70;99.90;;;;;;5020118;28;20211;-47
2022/11/26 02:11:45;;;;;;;32.27;9.10;;;5.80;99.90;;;;;;5015056;28;20279;-48
2022/11/26 02:14:15;;;;;;;19.17;8.47;;;5.70;99.90;;;;;;5019398;28;20303;-50
2022/11/26 02:16:57;;;;;;;16.87;8.50;;;5.80;99.90;;;;;;5023011;28;20224;-46
2022/11/26 02:19:53;;;;;;;29.27;9.03;;;5.80;99.90;;;;;;5004541;28;20204;-52
2022/11/26 02:22:51;;;;;;;23.17;7.67;;;5.70;99.90;;;;;;5019499;28;20211;-51
2022/11/26 02:25:30;;;;;;;26.87;8.60;;;5.70;99.90;;;;;;5017530;28;20963;-48
2022/11/26 02:28:23;;;;;;;29.23;10.37;;;5.70;99.90;;;;;;5012494;28;20208;-48
2022/11/26 02:30:56;;;;;;;20.17;8.77;;;5.70;99.90;;;;;;5025590;28;20615;-51
2022/11/26 02:33:28;;;;;;;24.27;9.10;;;5.70;99.90;;;;;;5025005;28;20238;-46
2022/11/26 02:36:01;;;;;;;22.03;9.63;;;5.70;99.90;;;;;;5008061;28;20625;-48
2022/11/26 02:38:29;;;;;;;26.20;8.90;;;5.70;99.90;;;;;;5024423;28;20196;-52
2022/11/26 02:40:57;;;;;;;21.07;8.60;;;5.70;99.90;;;;;;5024401;28;20725;-52
2022/11/26 02:43:24;;;;;;;24.30;9.50;;;5.70;99.90;;;;;;5017238;28;20224;-50
2022/11/26 02:45:55;;;;;;;35.97;10.40;;;5.70;99.90;;;;;;5025244;28;20235;-50
2022/11/26 02:48:26;;;;;;;28.67;9.00;;;5.70;99.90;;;;;;5023921;28;20901;-50
2022/11/26 02:50:56;;;;;;;28.83;9.63;;;5.70;99.90;;;;;;5008217;28;20213;-49
2022/11/26 02:53:26;;;;;;;27.40;10.30;;;5.80;99.90;;;;;;5023167;28;20232;-50
2022/11/26 02:56:00;;;;;;;25.33;9.67;;;5.80;99.90;;;;;;5023666;28;20208;-48
2022/11/26 02:58:28;;;;;;;27.27;8.97;;;5.80;99.90;;;;;;5021306;28;20199;-51
2022/11/26 03:01:00;;;;;;;21.27;9.80;;;5.80;99.90;;;;;;5020444;28;20239;-49
2022/11/26 03:03:32;;;;;;;28.97;9.80;;;5.80;99.90;;;;;;5023844;28;20246;-48
2022/11/26 03:06:03;;;;;;;20.50;9.13;;;5.80;99.90;;;;;;5007986;28;20220;-46
2022/11/26 03:08:31;;;;;;;23.30;9.53;;;5.80;99.90;;;;;;5023355;28;20204;-49
2022/11/26 03:10:58;;;;;;;26.83;9.73;;;5.80;99.90;;;;;;5025087;28;20250;-50
2022/11/26 03:13:26;;;;;;;22.73;9.67;;;5.70;99.90;;;;;;5014834;28;20197;-46
2022/11/26 03:15:53;;;;;;;19.37;10.17;;;5.70;99.90;;;;;;5019607;28;20944;-50
2022/11/26 03:18:21;;;;;;;25.10;9.03;;;5.70;99.90;;;;;;5024243;28;20201;-47
2022/11/26 03:20:48;;;;;;;24.93;8.57;;;5.70;99.90;;;;;;5005714;28;20945;-50
2022/11/26 03:23:15;;;;;;;22.40;9.03;;;5.70;99.90;;;;;;5024777;28;20557;-50
2022/11/26 03:25:42;;;;;;;27.17;8.77;;;5.70;99.90;;;;;;5021665;28;20212;-46
2022/11/26 03:28:09;;;;;;;14.73;7.87;;;5.60;99.90;;;;;;5025646;28;20318;-46
2022/11/26 03:30:36;;;;;;;30.67;9.07;;;5.60;99.90;;;;;;5013065;28;20196;-51
2022/11/26 03:33:02;;;;;;;25.13;8.70;;;5.60;99.90;;;;;;5025062;28;20207;-48
2022/11/26 03:35:31;;;;;;;19.70;8.30;;;5.50;99.90;;;;;;5013023;28;20230;-50
2022/11/26 03:37:57;;;;;;;18.80;8.20;;;5.50;99.90;;;;;;5019902;28;20200;-52
2022/11/26 03:40:24;;;;;;;19.57;9.17;;;5.50;99.90;;;;;;5023683;28;20299;-49
2022/11/26 03:42:51;;;;;;;17.97;8.47;;;5.50;99.90;;;;;;5022610;28;20222;-47
2022/11/26 03:45:18;;;;;;;19.23;8.33;;;5.50;99.90;;;;;;5017824;28;20570;-51
2022/11/26 03:47:45;;;;;;;19.73;8.20;;;5.60;99.90;;;;;;5021080;28;20202;-48
2022/11/26 03:50:12;;;;;;;22.33;8.63;;;5.60;99.90;;;;;;5024600;28;20215;-46
2022/11/26 03:52:41;;;;;;;20.50;9.13;;;5.60;99.90;;;;;;5004055;28;20200;-46
2022/11/26 03:55:08;;;;;;;28.73;9.53;;;5.60;99.90;;;;;;5024599;28;20212;-51
2022/11/26 03:57:37;;;;;;;30.37;9.57;;;5.60;99.90;;;;;;5021354;28;20806;-51
2022/11/26 04:00:06;;;;;;;28.97;9.37;;;5.60;99.90;;;;;;5024949;28;20203;-47
2022/11/26 04:02:34;;;;;;;27.77;9.33;;;5.70;99.90;;;;;;5014134;28;20219;-47
2022/11/26 04:05:02;;;;;;;25.83;8.87;;;5.60;99.90;;;;;;5024525;28;20200;-51
2022/11/26 04:07:29;;;;;;;25.60;9.50;;;5.70;99.90;;;;;;5010933;28;20232;-48
2022/11/26 04:09:57;;;;;;;19.83;8.70;;;5.60;99.90;;;;;;5017868;28;20200;-49
2022/11/26 04:12:24;;;;;;;60.63;10.03;;;5.60;99.90;;;;;;5022992;28;20204;-49
2022/11/26 04:14:51;;;;;;;42.30;9.60;;;5.60;99.90;;;;;;5022529;28;20192;-47
2022/11/26 04:17:17;;;;;;;50.90;9.80;;;5.60;99.90;;;;;;5017617;28;20581;-47
2022/11/26 04:19:44;;;;;;;46.50;9.97;;;5.60;99.90;;;;;;5020892;28;20188;-50
2022/11/26 04:22:11;;;;;;;42.43;8.67;;;5.60;99.90;;;;;;5022081;28;20254;-45
2022/11/26 04:24:38;;;;;;;26.17;8.70;;;5.60;99.90;;;;;;5004478;28;20212;-50
2022/11/26 04:27:06;;;;;;;40.40;8.90;;;5.60;99.90;;;;;;5013513;28;20228;-48
2022/11/26 04:29:35;;;;;;;41.13;7.77;;;5.50;99.90;;;;;;5020798;28;20680;-51
2022/11/26 04:32:02;;;;;;;69.07;8.97;;;5.50;99.90;;;;;;5013356;28;20204;-49
2022/11/26 04:34:28;;;;;;;36.77;8.93;;;5.40;99.90;;;;;;5020840;28;20196;-49
2022/11/26 04:36:55;;;;;;;70.70;9.60;;;5.40;99.90;;;;;;5022400;28;20224;-46
2022/11/26 04:39:22;;;;;;;100.10;10.93;;;5.40;99.90;;;;;;5006112;28;20215;-49
2022/11/26 04:41:49;;;;;;;101.13;11.33;;;5.40;99.90;;;;;;5020835;28;20203;-48
2022/11/26 04:44:18;;;;;;;75.03;10.97;;;5.40;99.90;;;;;;5022959;28;20732;-47
2022/11/26 04:46:45;;;;;;;110.93;11.87;;;5.40;99.90;;;;;;5012643;28;21139;-53
2022/11/26 04:49:11;;;;;;;110.97;12.57;;;5.40;99.90;;;;;;5022660;28;20200;-46
2022/11/26 04:51:38;;;;;;;145.77;13.63;;;5.40;99.90;;;;;;5019634;28;20551;-49
2022/11/26 04:54:27;;;;;;;112.57;11.93;;;5.40;99.90;;;;;;5013661;28;20203;-48
2022/11/26 04:56:55;;;;;;;104.33;11.53;;;5.40;99.90;;;;;;5014559;28;20301;-52
2022/11/26 04:59:23;;;;;;;63.57;9.67;;;5.40;99.90;;;;;;5023059;28;20207;-51
2022/11/26 05:01:50;;;;;;;85.27;12.73;;;5.40;99.90;;;;;;5019521;28;20242;-51
2022/11/26 05:04:16;;;;;;;135.43;15.83;;;5.40;99.90;;;;;;5013796;28;20212;-50
2022/11/26 05:06:43;;;;;;;74.27;11.90;;;5.40;99.90;;;;;;5019827;28;20728;-48
2022/11/26 05:09:10;;;;;;;98.33;11.30;;;5.40;99.90;;;;;;5018662;28;20199;-46
2022/11/26 05:11:36;;;;;;;121.00;13.60;;;5.40;99.90;;;;;;5005933;28;20700;-47
2022/11/26 05:14:04;;;;;;;87.33;11.53;;;5.40;99.90;;;;;;5019134;28;20210;-50
2022/11/26 05:16:32;;;;;;;110.73;12.47;;;5.40;99.90;;;;;;5023518;28;20215;-50
2022/11/26 05:18:58;;;;;;;117.00;12.43;;;5.40;99.90;;;;;;5007458;28;20207;-49
2022/11/26 05:21:25;;;;;;;95.13;12.67;;;5.40;99.90;;;;;;5021463;28;20192;-52
2022/11/26 05:23:52;;;;;;;63.97;11.10;;;5.40;99.90;;;;;;5021458;28;20207;-48
2022/11/26 05:26:19;;;;;;;109.20;14.13;;;5.40;99.90;;;;;;5003489;28;20588;-49
2022/11/26 05:28:46;;;;;;;61.27;11.03;;;5.40;99.90;;;;;;5022269;28;20208;-48
2022/11/26 05:31:13;;;;;;;62.17;11.03;;;5.40;99.90;;;;;;5019977;28;20207;-46
2022/11/26 05:33:41;;;;;;;81.13;12.47;;;5.40;99.90;;;;;;5012594;28;20570;-46
2022/11/26 05:36:08;;;;;;;68.30;12.43;;;5.40;99.90;;;;;;5014981;28;20212;-48
2022/11/26 05:38:35;;;;;;;74.50;13.47;;;5.50;99.90;;;;;;5022492;28;20199;-50
2022/11/26 05:41:02;;;;;;;90.03;12.50;;;5.50;99.90;;;;;;5005678;28;20208;-50
2022/11/26 05:43:29;;;;;;;33.73;11.33;;;5.50;99.90;;;;;;5019788;28;20226;-51
2022/11/26 05:45:56;;;;;;;81.00;11.50;;;5.50;99.90;;;;;;5020831;28;20703;-51
2022/11/26 05:48:23;;;;;;;66.27;13.07;;;5.50;99.90;;;;;;5021615;28;20200;-48
2022/11/26 05:50:57;;;;;;;62.50;13.00;;;5.50;99.90;;;;;;5011256;28;20211;-51
2022/11/26 05:53:24;;;;;;;52.90;13.97;;;5.50;99.90;;;;;;5021255;28;20222;-45
2022/11/26 05:55:51;;;;;;;74.60;15.10;;;5.50;99.90;;;;;;5022477;28;20711;-46
2022/11/26 05:58:18;;;;;;;101.37;15.73;;;5.50;99.90;;;;;;5007831;28;20573;-46
2022/11/26 06:00:44;;;;;;;119.10;16.43;;;5.50;99.90;;;;;;5026951;28;20283;-46
2022/11/26 06:03:12;;;;;;;114.33;16.57;;;5.60;99.90;;;;;;5023215;28;20188;-50
2022/11/26 06:05:39;;;;;;;128.13;19.27;;;5.60;99.90;;;;;;5016868;28;20347;-46
2022/11/26 06:08:07;;;;;;;117.40;18.60;;;5.60;99.90;;;;;;5023139;28;20283;-46
2022/11/26 06:10:34;;;;;;;82.47;16.00;;;5.60;99.90;;;;;;5006501;28;20619;-49
2022/11/26 06:13:02;;;;;;;99.63;17.10;;;5.60;99.90;;;;;;5001713;28;20266;-48
2022/11/26 06:15:28;;;;;;;82.77;16.13;;;5.60;99.90;;;;;;5017402;28;20208;-46
2022/11/26 06:17:55;;;;;;;52.83;13.80;;;5.60;99.90;;;;;;5022875;28;20203;-52
2022/11/26 06:20:22;;;;;;;63.50;14.00;;;5.60;99.90;;;;;;5011707;28;20211;-47
2022/11/26 06:22:49;;;;;;;67.93;14.17;;;5.70;99.90;;;;;;5012350;28;20206;-46
2022/11/26 06:25:17;;;;;;;70.00;16.60;;;5.70;99.90;;;;;;5016664;28;20711;-50
2022/11/26 06:27:44;;;;;;;61.43;15.47;;;5.70;99.90;;;;;;4998079;28;20423;-47
2022/11/26 06:30:12;;;;;;;75.73;13.70;;;5.70;99.90;;;;;;5021704;28;20203;-50
2022/11/26 06:32:40;;;;;;;63.40;14.07;;;5.70;99.90;;;;;;5008495;28;20204;-47
2022/11/26 06:35:07;;;;;;;60.60;15.27;;;5.70;99.90;;;;;;5020247;28;20302;-50
2022/11/26 06:37:33;;;;;;;57.70;14.40;;;5.70;99.90;;;;;;5012321;28;20203;-50
2022/11/26 06:40:01;;;;;;;58.27;15.40;;;5.70;99.90;;;;;;5015277;28;20189;-46
2022/11/26 06:42:29;;;;;;;58.13;14.63;;;5.70;99.90;;;;;;5000807;28;20204;-48
2022/11/26 06:44:56;;;;;;;48.47;14.83;;;5.70;99.90;;;;;;5006176;28;20296;-46
2022/11/26 06:47:22;;;;;;;60.70;14.90;;;5.70;99.90;;;;;;5014272;28;20308;-47
2022/11/26 06:49:49;;;;;;;66.73;16.90;;;5.70;99.90;;;;;;5005748;28;20210;-48
2022/11/26 06:52:16;;;;;;;42.60;15.43;;;5.70;99.90;;;;;;5015426;28;20605;-52
2022/11/26 06:54:42;;;;;;;52.00;17.10;;;5.70;99.90;;;;;;5001415;28;20211;-46
2022/11/26 06:57:09;;;;;;;38.63;15.33;;;5.70;99.90;;;;;;5011904;28;20224;-50
2022/11/26 06:59:37;;;;;;;35.53;14.43;;;5.70;99.90;;;;;;4990743;28;20204;-49
2022/11/26 07:02:04;;;;;;;29.17;13.80;;;5.70;99.90;;;;;;5014613;28;20212;-46
2022/11/26 07:04:31;;;;;;;25.13;12.87;;;5.80;99.90;;;;;;5012409;28;20221;-47
2022/11/26 07:06:58;;;;;;;33.77;14.63;;;5.70;99.90;;;;;;5007249;28;20239;-46
2022/11/26 07:09:24;;;;;;;35.90;13.77;;;5.70;99.90;;;;;;5000771;28;20212;-47
2022/11/26 07:11:51;;;;;;;41.10;13.03;;;5.80;99.90;;;;;;5015151;28;20323;-47
2022/11/26 07:14:21;;;;;;;43.20;13.27;;;5.80;99.90;;;;;;4994178;28;20252;-51
2022/11/26 07:16:49;;;;;;;48.63;14.37;;;5.70;99.90;;;;;;5018637;28;20220;-53
2022/11/26 07:19:16;;;;;;;38.13;13.57;;;5.70;99.90;;;;;;5015916;28;20192;-48
2022/11/26 07:21:42;;;;;;;28.03;13.43;;;5.70;99.90;;;;;;5022100;28;20200;-46
2022/11/26 07:24:09;;;;;;;26.40;13.83;;;5.70;99.90;;;;;;5011490;28;20214;-50
2022/11/26 07:26:36;;;;;;;41.33;14.30;;;5.70;99.90;;;;;;5003194;28;20220;-50
2022/11/26 07:29:03;;;;;;;34.83;13.63;;;5.80;99.90;;;;;;5008515;28;20200;-49
2022/11/26 07:31:30;;;;;;;28.70;12.77;;;5.70;99.90;;;;;;4994371;28;20223;-52
2022/11/26 07:33:59;;;;;;;40.47;15.53;;;5.80;99.90;;;;;;5012061;28;20870;-48
2022/11/26 07:36:27;;;;;;;40.80;14.93;;;5.70;99.90;;;;;;5015645;28;20232;-50
2022/11/26 07:38:55;;;;;;;25.93;13.33;;;5.80;99.90;;;;;;5008288;28;20953;-49
2022/11/26 07:41:23;;;;;;;41.70;16.83;;;5.80;99.90;;;;;;5011202;28;20196;-47
2022/11/26 07:43:50;;;;;;;41.47;16.20;;;5.70;99.90;;;;;;5005287;28;20255;-50
2022/11/26 07:46:19;;;;;;;38.57;14.93;;;5.80;99.90;;;;;;4999028;28;20255;-46
2022/11/26 07:48:48;;;;;;;27.93;13.73;;;5.80;99.90;;;;;;5008509;28;20234;-47
2022/11/26 07:51:18;;;;;;;32.40;13.87;;;5.80;99.90;;;;;;5013391;28;20288;-46
2022/11/26 07:53:46;;;;;;;30.17;14.17;;;5.80;99.90;;;;;;5009684;28;20208;-51
2022/11/26 07:56:13;;;;;;;31.33;14.73;;;5.80;99.90;;;;;;5011441;28;20297;-51
2022/11/26 07:58:40;;;;;;;32.97;14.80;;;5.90;99.90;;;;;;5005608;28;21056;-47
2022/11/26 08:01:08;;;;;;;36.53;15.83;;;5.80;99.90;;;;;;5003582;28;20218;-48
2022/11/26 08:03:38;;;;;;;31.67;14.80;;;5.80;99.90;;;;;;5009610;28;20258;-42
2022/11/26 08:06:07;;;;;;;34.97;15.20;;;5.80;99.90;;;;;;5016005;28;20318;-43
2022/11/26 08:08:36;;;;;;;28.60;14.93;;;5.80;99.90;;;;;;5011353;28;20220;-46
2022/11/26 08:11:04;;;;;;;46.10;17.13;;;5.90;99.90;;;;;;5008104;28;20207;-42
2022/11/26 08:13:31;;;;;;;48.63;18.33;;;5.90;99.90;;;;;;5005389;28;20215;-43
2022/11/26 08:15:57;;;;;;;45.60;17.77;;;5.90;99.90;;;;;;5010486;28;20221;-42
2022/11/26 08:18:25;;;;;;;41.83;17.50;;;5.90;99.90;;;;;;4989034;28;20743;-48
2022/11/26 08:20:55;;;;;;;41.53;16.03;;;6.00;99.90;;;;;;5017442;28;20204;-44
2022/11/26 08:23:23;;;;;;;31.10;16.70;;;5.90;99.90;;;;;;5012928;28;20200;-42
2022/11/26 08:25:52;;;;;;;72.23;22.47;;;5.90;99.90;;;;;;5020637;28;20212;-42
2022/11/26 08:28:19;;;;;;;41.43;17.27;;;6.00;99.90;;;;;;5003548;28;20205;-43
2022/11/26 08:30:46;;;;;;;37.30;16.73;;;6.00;99.90;;;;;;5008019;28;20578;-42
2022/11/26 08:33:14;;;;;;;39.73;17.23;;;6.00;99.90;;;;;;4992242;28;20239;-43
2022/11/26 08:35:40;;;;;;;46.40;17.63;;;6.00;99.90;;;;;;5014753;28;20220;-42
2022/11/26 08:38:07;;;;;;;41.97;17.30;;;6.10;99.90;;;;;;5012333;28;20208;-42
2022/11/26 08:40:34;;;;;;;38.40;17.17;;;6.10;99.90;;;;;;5014415;28;20192;-41
2022/11/26 08:43:02;;;;;;;38.53;17.90;;;6.10;99.90;;;;;;5000246;28;20205;-45
2022/11/26 08:45:29;;;;;;;31.80;16.07;;;6.10;99.90;;;;;;5011959;28;20221;-44
2022/11/26 08:47:56;;;;;;;30.33;16.97;;;6.10;99.90;;;;;;4999715;28;20207;-41
2022/11/26 08:50:23;;;;;;;34.70;16.40;;;6.10;99.90;;;;;;5008888;28;20873;-47
2022/11/26 08:52:49;;;;;;;35.57;15.50;;;6.20;99.90;;;;;;5017398;28;20214;-42
2022/11/26 08:55:16;;;;;;;35.30;17.00;;;6.10;99.90;;;;;;5010264;28;20317;-43
2022/11/26 08:57:43;;;;;;;29.70;15.70;;;6.10;99.90;;;;;;5002425;28;20195;-46
2022/11/26 09:00:13;;;;;;;30.90;16.53;;;6.20;99.90;;;;;;4998816;28;20226;-42
2022/11/26 09:02:40;;;;;;;30.93;16.90;;;6.20;99.90;;;;;;5010228;28;20203;-42
2022/11/26 09:05:07;;;;;;;26.30;15.53;;;6.20;99.90;;;;;;4997420;28;20251;-44
2022/11/26 09:07:34;;;;;;;33.20;15.27;;;6.20;99.90;;;;;;4995743;28;20197;-43
2022/11/26 09:10:01;;;;;;;31.63;16.10;;;6.20;99.90;;;;;;5009963;28;20195;-45
2022/11/26 09:12:28;;;;;;;34.37;16.77;;;6.30;99.90;;;;;;5007211;28;20192;-43
2022/11/26 09:14:55;;;;;;;31.97;17.00;;;6.30;99.90;;;;;;4996023;28;20798;-41
2022/11/26 09:17:23;;;;;;;33.00;17.67;;;6.30;99.90;;;;;;5021360;28;20224;-45
2022/11/26 09:19:49;;;;;;;38.33;19.77;;;6.30;99.90;;;;;;5001857;28;20215;-42
2022/11/26 09:22:16;;;;;;;29.17;17.03;;;6.40;99.90;;;;;;5021604;28;20215;-41
2022/11/26 09:24:43;;;;;;;35.17;17.57;;;6.40;99.90;;;;;;5018606;28;20224;-44
2022/11/26 09:27:10;;;;;;;35.00;17.70;;;6.40;99.90;;;;;;5018069;28;20220;-44
2022/11/26 09:29:37;;;;;;;39.17;19.93;;;6.40;99.90;;;;;;4996007;28;20211;-42
2022/11/26 09:32:04;;;;;;;30.33;17.27;;;6.40;99.90;;;;;;5012540;28;20273;-42
2022/11/26 09:34:33;;;;;;;50.97;19.77;;;6.40;99.90;;;;;;5022151;28;20196;-42
2022/11/26 09:36:59;;;;;;;39.77;19.00;;;6.50;99.90;;;;;;5004061;28;20216;-46
2022/11/26 09:39:27;;;;;;;36.37;18.17;;;6.50;99.90;;;;;;5014005;28;20201;-45
2022/11/26 09:42:00;;;;;;;39.03;17.90;;;6.50;99.90;;;;;;5016844;28;20191;-43
2022/11/26 09:44:55;;;;;;;39.40;18.87;;;6.50;99.90;;;;;;5013511;28;20204;-42
2022/11/26 09:47:25;;;;;;;44.27;19.10;;;6.60;99.90;;;;;;5008538;28;20233;-41
2022/11/26 09:50:02;;;;;;;38.20;19.53;;;6.60;99.90;;;;;;5017779;28;20200;-42
2022/11/26 09:52:33;;;;;;;40.90;19.50;;;6.60;99.90;;;;;;4995290;28;20223;-41
2022/11/26 09:55:09;;;;;;;41.00;21.30;;;6.60;99.90;;;;;;5016380;28;20255;-42
2022/11/26 09:57:41;;;;;;;41.87;20.87;;;6.70;99.90;;;;;;5012638;28;20267;-44
2022/11/26 10:00:22;;;;;;;68.50;25.57;;;6.70;99.90;;;;;;5010683;28;20316;-43
2022/11/26 10:02:52;;;;;;;47.37;20.77;;;6.70;99.90;;;;;;5007305;28;20279;-48
2022/11/26 10:05:22;;;;;;;52.70;22.33;;;6.70;99.90;;;;;;5019363;28;20219;-45
2022/11/26 10:08:02;;;;;;;39.23;19.63;;;6.70;99.90;;;;;;4998301;28;20701;-43
2022/11/26 10:10:34;;;;;;;46.30;20.87;;;6.80;99.90;;;;;;5019496;28;20211;-44
2022/11/26 10:13:08;;;;;;;45.97;21.17;;;6.80;99.90;;;;;;5009733;28;20283;-48
2022/11/26 10:15:38;;;;;;;35.60;19.13;;;6.80;99.90;;;;;;5009875;28;20240;-44
2022/11/26 10:18:15;;;;;;;34.53;19.17;;;6.80;99.90;;;;;;5009948;28;20192;-43
2022/11/26 10:20:54;;;;;;;38.57;18.33;;;6.80;99.90;;;;;;5016948;28;20195;-42
2022/11/26 10:23:27;;;;;;;33.97;18.23;;;6.80;99.90;;;;;;5001040;28;20687;-41
2022/11/26 10:26:00;;;;;;;59.30;21.60;;;6.80;99.90;;;;;;5012317;28;20904;-42
2022/11/26 10:28:32;;;;;;;39.00;18.20;;;6.80;99.90;;;;;;5019799;28;20208;-42
2022/11/26 10:31:01;;;;;;;41.43;18.47;;;6.80;99.90;;;;;;5005693;28;20525;-43
2022/11/26 10:33:32;;;;;;;41.40;18.73;;;6.80;99.90;;;;;;5010646;28;20270;-45
2022/11/26 10:36:01;;;;;;;40.80;18.50;;;6.90;99.90;;;;;;5018858;28;20299;-44
2022/11/26 10:38:28;;;;;;;44.67;19.63;;;6.90;99.90;;;;;;5006600;28;20208;-44
2022/11/26 10:40:55;;;;;;;45.37;20.13;;;6.90;99.90;;;;;;5020435;28;21023;-44
2022/11/26 10:43:24;;;;;;;39.63;19.47;;;6.90;99.90;;;;;;5018974;28;20200;-42
2022/11/26 10:45:52;;;;;;;42.90;18.77;;;7.00;99.90;;;;;;5013187;28;20216;-45
2022/11/26 10:48:23;;;;;;;42.57;19.00;;;7.00;99.90;;;;;;5008822;28;20298;-45
2022/11/26 10:50:59;;;;;;;42.17;18.57;;;7.10;99.90;;;;;;5021151;28;20262;-42
2022/11/26 10:53:31;;;;;;;37.30;21.63;;;7.00;99.90;;;;;;5012116;28;20294;-43
2022/11/26 10:56:00;;;;;;;48.13;18.57;;;7.00;99.90;;;;;;5024548;28;20700;-46
2022/11/26 10:58:31;;;;;;;53.90;19.40;;;7.00;99.90;;;;;;5013044;28;20665;-45
2022/11/26 11:01:01;;;;;;;36.20;18.33;;;7.00;99.90;;;;;;5011959;28;20546;-42
2022/11/26 11:03:31;;;;;;;36.07;18.30;;;7.00;99.90;;;;;;5005620;28;20286;-42
2022/11/26 11:06:24;;;;;;;68.37;22.30;;;7.00;99.90;;;;;;5023412;28;20227;-42
2022/11/26 11:08:53;;;;;;;49.47;18.83;;;7.00;99.90;;;;;;5016430;28;20621;-41
2022/11/26 11:11:21;;;;;;;42.17;16.23;;;7.00;99.90;;;;;;5004422;28;20247;-45
2022/11/26 11:13:49;;;;;;;33.20;16.63;;;7.00;99.90;;;;;;5023731;28;20194;-42
2022/11/26 11:16:25;;;;;;;41.53;17.13;;;6.90;99.90;;;;;;5012891;28;20227;-44
2022/11/26 11:18:55;;;;;;;32.03;16.33;;;6.90;99.90;;;;;;5026456;28;20211;-43
2022/11/26 11:21:28;;;;;;;28.67;15.63;;;6.90;99.90;;;;;;5001967;28;20209;-43
2022/11/26 11:24:07;;;;;;;28.90;15.10;;;6.90;99.90;;;;;;5021800;28;20203;-47
2022/11/26 11:26:41;;;;;;;37.00;16.50;;;6.90;99.90;;;;;;4999202;28;20713;-43
2022/11/26 11:29:25;;;;;;;29.67;15.40;;;6.90;99.90;;;;;;5001817;28;20191;-44
2022/11/26 11:31:52;;;;;;;30.03;14.97;;;6.80;99.90;;;;;;5010620;28;20200;-43
2022/11/26 11:34:22;;;;;;;34.23;15.37;;;6.90;99.90;;;;;;5008093;28;20200;-47
2022/11/26 11:37:00;;;;;;;29.67;15.87;;;6.90;99.90;;;;;;5009898;28;20220;-46
2022/11/26 11:39:30;;;;;;;31.73;16.20;;;6.90;99.90;;;;;;5020429;28;20707;-43
2022/11/26 11:41:59;;;;;;;29.90;15.47;;;6.90;99.90;;;;;;5001163;28;20227;-42
2022/11/26 11:44:31;;;;;;;31.70;16.03;;;7.00;99.90;;;;;;5009159;28;20204;-43
2022/11/26 11:47:20;;;;;;;32.07;14.77;;;7.00;99.90;;;;;;5010007;28;20223;-45
2022/11/26 11:49:58;;;;;;;30.00;14.77;;;7.00;99.90;;;;;;5020198;28;20200;-44
2022/11/26 11:52:34;;;;;;;29.10;15.70;;;6.90;99.90;;;;;;5020946;28;20314;-42
2022/11/26 11:55:16;;;;;;;28.67;15.10;;;6.90;99.90;;;;;;5014937;28;20196;-49
2022/11/26 11:58:00;;;;;;;26.50;15.43;;;6.90;99.90;;;;;;4999854;28;20681;-43
2022/11/26 12:00:36;;;;;;;24.67;14.37;;;6.90;99.90;;;;;;5013543;28;20895;-42
2022/11/26 12:03:27;;;;;;;28.07;14.93;;;6.80;99.90;;;;;;5003056;28;20218;-43
2022/11/26 12:06:11;;;;;;;28.00;14.37;;;6.80;99.90;;;;;;5016957;28;20223;-43
2022/11/26 12:08:51;;;;;;;33.03;15.73;;;6.80;99.90;;;;;;5019481;28;20202;-44
2022/11/26 12:11:34;;;;;;;28.07;14.83;;;6.90;99.90;;;;;;5013811;28;20196;-43
2022/11/26 12:14:07;;;;;;;35.03;15.10;;;6.90;99.90;;;;;;4992070;28;20212;-44
2022/11/26 12:16:40;;;;;;;33.27;15.63;;;6.90;99.90;;;;;;5016250;28;20221;-41
2022/11/26 12:19:14;;;;;;;32.90;16.07;;;6.90;99.90;;;;;;5009488;28;20204;-43
2022/11/26 12:21:45;;;;;;;34.20;16.03;;;7.00;99.90;;;;;;5012725;28;20221;-43
2022/11/26 12:24:19;;;;;;;35.40;16.23;;;7.00;99.90;;;;;;5013878;28;20918;-42
2022/11/26 12:26:53;;;;;;;29.40;15.07;;;7.00;99.90;;;;;;5011783;28;20696;-42
2022/11/26 12:29:29;;;;;;;31.97;15.83;;;7.00;99.90;;;;;;5017592;28;20211;-44
2022/11/26 12:32:02;;;;;;;35.67;16.13;;;7.00;99.90;;;;;;5012376;28;20206;-44
2022/11/26 12:34:32;;;;;;;36.37;16.37;;;7.10;99.90;;;;;;5013537;28;20196;-41
2022/11/26 12:37:03;;;;;;;36.97;16.13;;;7.10;99.90;;;;;;5005321;28;20216;-42
2022/11/26 12:39:39;;;;;;;32.23;15.40;;;7.00;99.90;;;;;;5016174;28;20563;-42
2022/11/26 12:42:16;;;;;;;33.77;15.63;;;7.00;99.90;;;;;;5009342;28;20195;-45
2022/11/26 12:44:48;;;;;;;31.40;15.37;;;7.00;99.90;;;;;;5018355;28;20287;-42
2022/11/26 12:47:24;;;;;;;34.67;16.67;;;7.00;99.90;;;;;;5003414;28;20224;-45
2022/11/26 12:50:05;;;;;;;35.47;17.27;;;7.00;99.90;;;;;;5011969;28;20204;-42
2022/11/26 12:52:41;;;;;;;32.17;15.87;;;7.00;99.90;;;;;;5003884;28;20870;-44
2022/11/26 12:55:16;;;;;;;35.20;17.87;;;7.10;99.90;;;;;;5013561;28;20214;-43